createdAt,value
2023-01-13T00:01:54.005Z,2.10
2023-01-13T00:06:55.847Z,1.77
2023-01-13T00:11:57.610Z,2.10
2023-01-13T00:16:59.536Z,1.37
2023-01-13T00:22:01.474Z,2.27
2023-01-13T00:27:03.484Z,2.27
2023-01-13T00:32:05.273Z,1.90
2023-01-13T00:37:08.144Z,2.10
2023-01-13T00:42:28.646Z,2.10
2023-01-13T00:47:30.645Z,2.37
2023-01-13T00:52:33.194Z,3.07
2023-01-13T00:57:35.006Z,2.87
2023-01-13T01:02:37.009Z,2.30
2023-01-13T01:07:39.040Z,2.43
2023-01-13T01:12:40.960Z,2.30
2023-01-13T01:17:42.962Z,2.40
2023-01-13T01:22:44.731Z,2.07
2023-01-13T01:27:46.503Z,2.40
2023-01-13T01:32:48.452Z,1.97
2023-01-13T01:37:50.520Z,1.33
2023-01-13T01:43:11.051Z,4.37
2023-01-13T01:48:12.938Z,1.50
2023-01-13T01:53:18.758Z,1.83
2023-01-13T01:58:26.983Z,1.10
2023-01-13T02:03:30.177Z,1.67
2023-01-13T02:08:32.742Z,1.90
2023-01-13T02:13:34.576Z,1.13
2023-01-13T02:19:30.002Z,1.73
2023-01-13T02:25:27.000Z,2.00
2023-01-13T02:31:15.890Z,1.73
2023-01-13T02:36:38.976Z,1.93
2023-01-13T02:42:08.119Z,2.40
2023-01-13T02:47:22.925Z,2.83
2023-01-13T02:52:41.693Z,2.20
2023-01-13T02:57:44.418Z,1.60
2023-01-13T03:02:48.622Z,2.30
2023-01-13T03:07:53.278Z,2.60
2023-01-13T03:13:02.767Z,1.80
2023-01-13T03:18:12.678Z,1.43
2023-01-13T03:23:17.713Z,1.77
2023-01-13T03:28:29.607Z,1.37
2023-01-13T03:33:39.532Z,2.20
2023-01-13T03:38:45.355Z,1.77
2023-01-13T03:44:17.560Z,1.63
2023-01-13T03:49:24.014Z,1.27
2023-01-13T03:54:29.920Z,1.33
2023-01-13T03:59:36.891Z,1.73
2023-01-13T04:04:45.417Z,1.00
2023-01-13T04:09:54.726Z,1.37
2023-01-13T04:14:56.765Z,1.50
2023-01-13T04:19:58.717Z,1.20
2023-01-13T04:25:00.625Z,1.40
2023-01-13T04:30:03.039Z,1.77
2023-01-13T04:35:05.380Z,1.10
2023-01-13T04:40:08.341Z,1.53
2023-01-13T04:45:11.103Z,1.30
2023-01-13T04:50:12.997Z,1.40
2023-01-13T04:55:15.642Z,1.20
2023-01-13T05:00:20.197Z,1.10
2023-01-13T05:05:22.012Z,1.20
2023-01-13T05:10:24.343Z,1.50
2023-01-13T05:15:44.985Z,0.80
2023-01-13T05:20:47.100Z,0.80
2023-01-13T05:25:49.530Z,1.60
2023-01-13T05:30:52.433Z,1.07
2023-01-13T05:35:54.335Z,1.50
2023-01-13T05:41:18.042Z,1.37
2023-01-13T05:46:19.849Z,1.70
2023-01-13T05:51:26.215Z,1.50
2023-01-13T05:56:28.537Z,1.57
2023-01-13T06:01:30.531Z,1.50
2023-01-13T06:06:32.591Z,1.80
2023-01-13T06:11:34.421Z,1.90
2023-01-13T06:16:36.542Z,1.53
2023-01-13T06:21:42.152Z,1.77
2023-01-13T06:26:44.314Z,1.70
2023-01-13T06:31:46.308Z,2.00
2023-01-13T06:36:53.651Z,2.47
2023-01-13T06:42:13.963Z,2.17
2023-01-13T06:47:17.701Z,1.93
2023-01-13T06:52:19.608Z,2.43
2023-01-13T06:57:21.369Z,1.93
2023-01-13T07:02:23.328Z,2.13
2023-01-13T07:07:25.158Z,2.17
2023-01-13T07:12:27.111Z,3.00
2023-01-13T07:17:29.031Z,2.47
2023-01-13T07:22:30.786Z,2.53
2023-01-13T07:27:32.716Z,2.73
2023-01-13T07:32:34.600Z,3.17
2023-01-13T07:37:39.254Z,2.70
2023-01-13T07:42:59.690Z,2.73
2023-01-13T07:48:01.721Z,1.90
2023-01-13T07:53:03.605Z,2.47
2023-01-13T07:58:05.571Z,2.43
2023-01-13T08:03:07.645Z,2.53
2023-01-13T08:08:09.737Z,2.90
2023-01-13T08:13:18.090Z,2.90
2023-01-13T08:18:22.407Z,2.40
2023-01-13T08:23:24.332Z,2.40
2023-01-13T08:28:26.113Z,2.50
2023-01-13T08:33:29.112Z,2.63
2023-01-13T08:38:31.400Z,2.63
2023-01-13T08:43:33.180Z,2.20
2023-01-13T08:48:36.097Z,2.40
2023-01-13T08:53:37.880Z,2.07
2023-01-13T08:58:40.907Z,2.13
2023-01-13T09:03:42.851Z,3.57
2023-01-13T09:08:44.985Z,4.30
2023-01-13T09:13:46.950Z,2.67
2023-01-13T09:18:48.930Z,2.27
2023-01-13T09:23:50.719Z,2.70
2023-01-13T09:28:52.673Z,3.10
2023-01-13T09:34:13.013Z,2.73
2023-01-13T09:39:15.141Z,2.67
2023-01-13T09:44:24.978Z,2.80
2023-01-13T09:49:36.591Z,2.83
2023-01-13T09:54:44.144Z,2.77
2023-01-13T09:59:46.416Z,2.63
2023-01-13T10:05:22.545Z,2.20
2023-01-13T10:10:46.894Z,2.93
2023-01-13T10:16:10.728Z,2.80
2023-01-13T10:21:39.929Z,2.47
2023-01-13T10:26:54.453Z,2.93
2023-01-13T10:31:58.018Z,2.47
2023-01-13T10:37:09.741Z,2.80
2023-01-13T10:42:15.026Z,2.73
2023-01-13T10:47:31.993Z,2.27
2023-01-13T10:52:38.166Z,2.90
2023-01-13T10:57:39.925Z,2.83
2023-01-13T11:02:41.874Z,2.77
2023-01-13T11:07:54.129Z,2.33
2023-01-13T11:13:15.975Z,2.23
2023-01-13T11:18:36.601Z,2.50
2023-01-13T11:23:47.988Z,2.80
2023-01-13T11:29:31.434Z,3.30
2023-01-13T11:34:39.675Z,3.33
2023-01-13T11:39:47.491Z,2.87
2023-01-13T11:44:55.927Z,3.40
2023-01-13T11:49:58.498Z,2.90
2023-01-13T11:55:28.187Z,3.07
2023-01-13T12:00:42.430Z,2.90
2023-01-13T12:06:05.410Z,3.27
2023-01-13T12:11:19.719Z,4.27
2023-01-13T12:16:26.935Z,2.23
2023-01-13T12:21:36.724Z,2.37
2023-01-13T12:26:43.816Z,2.33
2023-01-13T12:31:48.735Z,2.80
2023-01-13T12:37:27.938Z,2.47
2023-01-13T12:42:58.405Z,2.70
2023-01-13T12:48:00.558Z,2.77
2023-01-13T12:53:34.902Z,1.63
2023-01-13T12:58:36.860Z,1.70
2023-01-13T13:03:38.716Z,2.47
2023-01-13T13:08:43.927Z,2.03
2023-01-13T13:13:48.889Z,2.73
2023-01-13T13:18:50.655Z,2.00
2023-01-13T13:23:55.528Z,2.80
2023-01-13T13:29:09.309Z,2.27
2023-01-13T13:34:25.370Z,2.60
2023-01-13T13:39:48.772Z,2.00
2023-01-13T13:45:09.374Z,2.30
2023-01-13T13:50:20.263Z,2.10
2023-01-13T13:55:25.455Z,2.30
2023-01-13T14:00:30.612Z,2.47
2023-01-13T14:05:37.265Z,2.20
2023-01-13T14:10:43.313Z,1.60
2023-01-13T14:15:47.389Z,2.50
2023-01-13T14:20:59.626Z,3.13
2023-01-13T14:26:06.873Z,2.37
2023-01-13T14:31:10.657Z,1.97
2023-01-13T14:36:20.167Z,2.43
2023-01-13T14:41:23.915Z,1.93
2023-01-13T14:46:43.445Z,2.47
2023-01-13T14:51:45.423Z,2.53
2023-01-13T14:56:53.723Z,2.17
2023-01-13T15:01:55.772Z,2.23
2023-01-13T15:06:59.126Z,2.57
2023-01-13T15:12:39.163Z,1.90
2023-01-13T15:17:41.676Z,2.30
2023-01-13T15:22:43.744Z,1.70
2023-01-13T15:27:50.023Z,2.27
2023-01-13T15:32:56.427Z,2.00
2023-01-13T15:37:58.417Z,2.10
2023-01-13T15:43:19.074Z,1.63
2023-01-13T15:48:22.624Z,1.40
2023-01-13T15:53:24.663Z,2.13
2023-01-13T15:58:29.662Z,2.47
2023-01-13T16:03:31.441Z,1.60
2023-01-13T16:08:34.178Z,1.90
2023-01-13T16:13:35.998Z,2.53
2023-01-13T16:18:38.022Z,1.70
2023-01-13T16:23:40.295Z,2.33
2023-01-13T16:28:42.247Z,1.87
2023-01-13T16:33:44.335Z,3.07
2023-01-13T16:38:47.427Z,2.47
2023-01-13T16:43:49.441Z,2.10
2023-01-13T16:48:56.559Z,2.67
2023-01-13T16:53:58.621Z,2.40
2023-01-13T16:59:13.485Z,3.93
2023-01-13T17:04:17.635Z,4.23
2023-01-13T17:09:22.341Z,2.40
2023-01-13T17:14:24.959Z,3.20
2023-01-13T17:19:27.338Z,3.90
2023-01-13T17:24:32.532Z,3.00
2023-01-13T17:29:34.371Z,3.27
2023-01-13T17:34:36.125Z,3.33
2023-01-13T17:39:38.031Z,2.83
2023-01-13T17:44:40.109Z,3.13
2023-01-13T17:49:42.034Z,3.60
2023-01-13T17:54:44.042Z,2.80
2023-01-13T17:59:47.881Z,3.30
2023-01-13T18:04:49.882Z,3.40
2023-01-13T18:09:51.839Z,3.17
2023-01-13T18:14:55.289Z,3.60
2023-01-13T18:20:15.798Z,3.10
2023-01-13T18:25:36.221Z,3.30
2023-01-13T18:30:38.184Z,3.53
2023-01-13T18:35:40.274Z,3.20
2023-01-13T18:40:44.040Z,3.20
2023-01-13T18:45:50.259Z,3.70
2023-01-13T18:50:52.022Z,4.23
2023-01-13T18:55:54.970Z,3.70
2023-01-13T19:01:01.920Z,3.63
2023-01-13T19:06:07.635Z,5.10
2023-01-13T19:11:09.553Z,3.90
2023-01-13T19:16:11.731Z,4.30
2023-01-13T19:21:14.028Z,4.83
2023-01-13T19:26:15.848Z,3.47
2023-01-13T19:31:20.488Z,4.83
2023-01-13T19:36:22.388Z,4.70
2023-01-13T19:41:42.756Z,4.93
2023-01-13T19:46:44.549Z,4.50
2023-01-13T19:51:46.521Z,4.20
2023-01-13T19:56:52.583Z,4.70
2023-01-13T20:02:00.817Z,5.70
2023-01-13T20:07:03.531Z,5.10
2023-01-13T20:12:10.816Z,5.83
2023-01-13T20:17:14.133Z,4.90
2023-01-13T20:22:16.004Z,3.97
2023-01-13T20:27:18.988Z,4.30
2023-01-13T20:32:20.832Z,5.03
2023-01-13T20:37:22.917Z,6.10
2023-01-13T20:42:31.574Z,5.23
2023-01-13T20:47:33.475Z,5.17
2023-01-13T20:52:35.360Z,5.33
2023-01-13T20:57:37.447Z,3.80
2023-01-13T21:02:40.855Z,5.53
2023-01-13T21:07:42.766Z,4.00
2023-01-13T21:13:03.105Z,3.77
2023-01-13T21:18:23.607Z,3.80
2023-01-13T21:23:25.375Z,3.80
2023-01-13T21:28:27.352Z,3.87
2023-01-13T21:33:29.952Z,3.50
2023-01-13T21:38:32.162Z,2.80
2023-01-13T21:43:53.424Z,4.00
2023-01-13T21:48:55.280Z,3.80
2023-01-13T21:53:57.419Z,5.47
2023-01-13T21:58:59.805Z,4.80
2023-01-13T22:04:14.584Z,4.00
2023-01-13T22:09:16.819Z,3.93
2023-01-13T22:14:19.316Z,4.40
2023-01-13T22:19:21.388Z,4.63
2023-01-13T22:24:25.304Z,4.70
2023-01-13T22:29:27.079Z,4.20
2023-01-13T22:34:29.021Z,4.07
2023-01-13T22:39:31.085Z,3.43
2023-01-13T22:44:33.614Z,4.43
2023-01-13T22:49:35.483Z,3.97
2023-01-13T22:54:37.607Z,4.07
2023-01-13T22:59:39.981Z,3.87
2023-01-13T23:04:41.805Z,3.00
2023-01-13T23:09:43.799Z,3.67
2023-01-13T23:14:45.563Z,4.40
2023-01-13T23:19:47.467Z,4.80
2023-01-13T23:24:49.245Z,5.43
2023-01-13T23:29:51.037Z,3.40
2023-01-13T23:34:52.978Z,4.03
2023-01-13T23:39:54.771Z,3.60
2023-01-13T23:44:56.741Z,4.53
2023-01-13T23:49:58.658Z,4.37
2023-01-13T23:55:00.600Z,3.97
